sensor_id;sensor_type;location;lat;lon;timestamp;P1;durP1;ratioP1;P2;durP2;ratioP2
76540;SDS011;65385;55.772;37.658;2023-07-30T00:00:37;22.55;;;13.63;;
76540;SDS011;65385;55.772;37.658;2023-07-30T00:01:37;21.17;;;12.82;;
76540;SDS011;65385;55.772;37.658;2023-07-30T00:02:38;20.17;;;13.50;;
76540;SDS011;65385;55.772;37.658;2023-07-30T00:03:38;23.10;;;13.32;;
76540;SDS011;65385;55.772;37.658;2023-07-30T00:04:39;19.20;;;12.02;;
76540;SDS011;65385;55.772;37.658;2023-07-30T00:05:40;23.38;;;13.18;;
76540;SDS011;65385;55.772;37.658;2023-07-30T00:06:40;21.33;;;13.90;;
76540;SDS011;65385;55.772;37.658;2023-07-30T00:07:41;20.00;;;11.90;;
76540;SDS011;65385;55.772;37.658;2023-07-30T00:08:41;19.38;;;11.50;;
76540;SDS011;65385;55.772;37.658;2023-07-30T00:09:42;20.60;;;12.32;;
76540;SDS011;65385;55.772;37.658;2023-07-30T00:10:43;18.35;;;11.77;;
76540;SDS011;65385;55.772;37.658;2023-07-30T00:11:43;23.55;;;12.90;;
76540;SDS011;65385;55.772;37.658;2023-07-30T00:12:44;23.02;;;13.18;;
76540;SDS011;65385;55.772;37.658;2023-07-30T00:13:44;22.67;;;12.63;;
76540;SDS011;65385;55.772;37.658;2023-07-30T00:14:45;22.30;;;13.55;;
76540;SDS011;65385;55.772;37.658;2023-07-30T00:15:46;22.83;;;13.35;;
76540;SDS011;65385;55.772;37.658;2023-07-30T00:16:47;21.90;;;12.73;;
76540;SDS011;65385;55.772;37.658;2023-07-30T00:17:48;22.83;;;14.45;;
76540;SDS011;65385;55.772;37.658;2023-07-30T00:18:48;25.35;;;12.85;;
76540;SDS011;65385;55.772;37.658;2023-07-30T00:19:49;22.98;;;13.15;;
76540;SDS011;65385;55.772;37.658;2023-07-30T00:20:49;20.88;;;13.48;;
76540;SDS011;65385;55.772;37.658;2023-07-30T00:21:50;21.15;;;13.60;;
76540;SDS011;65385;55.772;37.658;2023-07-30T00:22:51;23.60;;;14.02;;
76540;SDS011;65385;55.772;37.658;2023-07-30T00:23:51;23.10;;;13.38;;
76540;SDS011;65385;55.772;37.658;2023-07-30T00:24:52;26.75;;;13.00;;
76540;SDS011;65385;55.772;37.658;2023-07-30T00:25:52;23.80;;;13.40;;
76540;SDS011;65385;55.772;37.658;2023-07-30T00:26:53;24.45;;;12.13;;
76540;SDS011;65385;55.772;37.658;2023-07-30T00:27:54;23.67;;;13.35;;
76540;SDS011;65385;55.772;37.658;2023-07-30T00:28:54;24.83;;;14.20;;
76540;SDS011;65385;55.772;37.658;2023-07-30T00:29:55;21.85;;;12.80;;
76540;SDS011;65385;55.772;37.658;2023-07-30T00:30:56;22.67;;;13.35;;
76540;SDS011;65385;55.772;37.658;2023-07-30T00:31:56;20.05;;;12.68;;
76540;SDS011;65385;55.772;37.658;2023-07-30T00:32:57;21.38;;;13.55;;
76540;SDS011;65385;55.772;37.658;2023-07-30T00:33:58;24.05;;;14.43;;
76540;SDS011;65385;55.772;37.658;2023-07-30T00:34:58;24.45;;;13.98;;
76540;SDS011;65385;55.772;37.658;2023-07-30T00:35:59;22.98;;;13.98;;
76540;SDS011;65385;55.772;37.658;2023-07-30T00:37:00;20.20;;;13.23;;
76540;SDS011;65385;55.772;37.658;2023-07-30T00:38:00;23.77;;;13.32;;
76540;SDS011;65385;55.772;37.658;2023-07-30T00:39:01;24.10;;;13.65;;
76540;SDS011;65385;55.772;37.658;2023-07-30T00:40:02;22.58;;;13.63;;
76540;SDS011;65385;55.772;37.658;2023-07-30T00:41:04;21.55;;;13.65;;
76540;SDS011;65385;55.772;37.658;2023-07-30T00:42:05;22.42;;;14.57;;
76540;SDS011;65385;55.772;37.658;2023-07-30T00:43:06;23.35;;;14.23;;
76540;SDS011;65385;55.772;37.658;2023-07-30T00:44:06;21.48;;;14.57;;
76540;SDS011;65385;55.772;37.658;2023-07-30T00:45:07;27.40;;;16.25;;
76540;SDS011;65385;55.772;37.658;2023-07-30T00:46:08;24.75;;;14.77;;
76540;SDS011;65385;55.772;37.658;2023-07-30T00:47:09;25.33;;;15.25;;
76540;SDS011;65385;55.772;37.658;2023-07-30T00:48:10;24.90;;;13.77;;
76540;SDS011;65385;55.772;37.658;2023-07-30T00:49:12;24.58;;;15.55;;
76540;SDS011;65385;55.772;37.658;2023-07-30T00:50:13;26.92;;;15.70;;
76540;SDS011;65385;55.772;37.658;2023-07-30T00:51:15;25.52;;;15.50;;
76540;SDS011;65385;55.772;37.658;2023-07-30T00:52:17;24.25;;;14.18;;
76540;SDS011;65385;55.772;37.658;2023-07-30T00:53:20;23.10;;;13.48;;
76540;SDS011;65385;55.772;37.658;2023-07-30T00:54:23;24.73;;;14.32;;
76540;SDS011;65385;55.772;37.658;2023-07-30T00:55:25;26.17;;;13.85;;
76540;SDS011;65385;55.772;37.658;2023-07-30T00:56:26;24.08;;;14.95;;
76540;SDS011;65385;55.772;37.658;2023-07-30T00:57:27;21.65;;;14.27;;
76540;SDS011;65385;55.772;37.658;2023-07-30T00:58:28;24.58;;;14.20;;
76540;SDS011;65385;55.772;37.658;2023-07-30T00:59:28;21.75;;;12.90;;
76540;SDS011;65385;55.772;37.658;2023-07-30T01:00:30;25.67;;;13.98;;
76540;SDS011;65385;55.772;37.658;2023-07-30T01:01:33;25.83;;;15.23;;
76540;SDS011;65385;55.772;37.658;2023-07-30T01:02:37;22.48;;;13.43;;
76540;SDS011;65385;55.772;37.658;2023-07-30T01:03:39;26.08;;;14.00;;
76540;SDS011;65385;55.772;37.658;2023-07-30T01:04:40;21.92;;;13.35;;
76540;SDS011;65385;55.772;37.658;2023-07-30T01:05:40;22.50;;;13.38;;
76540;SDS011;65385;55.772;37.658;2023-07-30T01:06:41;23.77;;;12.75;;
76540;SDS011;65385;55.772;37.658;2023-07-30T01:07:42;23.88;;;13.73;;
76540;SDS011;65385;55.772;37.658;2023-07-30T01:08:43;23.60;;;14.32;;
76540;SDS011;65385;55.772;37.658;2023-07-30T01:09:44;31.23;;;17.08;;
76540;SDS011;65385;55.772;37.658;2023-07-30T01:10:44;25.23;;;14.20;;
76540;SDS011;65385;55.772;37.658;2023-07-30T01:11:45;23.08;;;14.27;;
76540;SDS011;65385;55.772;37.658;2023-07-30T01:12:48;29.35;;;14.15;;
76540;SDS011;65385;55.772;37.658;2023-07-30T01:13:49;22.67;;;12.20;;
76540;SDS011;65385;55.772;37.658;2023-07-30T01:14:49;20.15;;;12.50;;
76540;SDS011;65385;55.772;37.658;2023-07-30T01:15:50;22.05;;;12.35;;
76540;SDS011;65385;55.772;37.658;2023-07-30T01:16:51;20.35;;;13.20;;
76540;SDS011;65385;55.772;37.658;2023-07-30T01:17:53;24.25;;;13.88;;
76540;SDS011;65385;55.772;37.658;2023-07-30T01:18:53;21.02;;;12.05;;
76540;SDS011;65385;55.772;37.658;2023-07-30T01:19:54;23.73;;;13.55;;
76540;SDS011;65385;55.772;37.658;2023-07-30T01:20:59;23.67;;;13.93;;
76540;SDS011;65385;55.772;37.658;2023-07-30T01:22:00;20.67;;;12.93;;
76540;SDS011;65385;55.772;37.658;2023-07-30T01:23:01;21.15;;;12.82;;
76540;SDS011;65385;55.772;37.658;2023-07-30T01:24:02;23.85;;;14.20;;
76540;SDS011;65385;55.772;37.658;2023-07-30T01:25:03;23.48;;;13.57;;
76540;SDS011;65385;55.772;37.658;2023-07-30T01:26:08;24.30;;;13.38;;
76540;SDS011;65385;55.772;37.658;2023-07-30T01:27:12;20.45;;;11.80;;
76540;SDS011;65385;55.772;37.658;2023-07-30T01:28:17;23.23;;;13.20;;
76540;SDS011;65385;55.772;37.658;2023-07-30T01:29:21;24.50;;;12.68;;
76540;SDS011;65385;55.772;37.658;2023-07-30T01:30:25;26.60;;;14.90;;
76540;SDS011;65385;55.772;37.658;2023-07-30T01:31:30;20.45;;;12.35;;
76540;SDS011;65385;55.772;37.658;2023-07-30T01:32:32;23.60;;;13.07;;
76540;SDS011;65385;55.772;37.658;2023-07-30T01:33:33;23.60;;;13.02;;
76540;SDS011;65385;55.772;37.658;2023-07-30T01:34:34;20.48;;;12.68;;
76540;SDS011;65385;55.772;37.658;2023-07-30T01:35:37;20.65;;;12.40;;
76540;SDS011;65385;55.772;37.658;2023-07-30T01:36:38;20.50;;;12.82;;
76540;SDS011;65385;55.772;37.658;2023-07-30T01:37:40;23.35;;;12.45;;
76540;SDS011;65385;55.772;37.658;2023-07-30T01:38:42;22.98;;;14.82;;
76540;SDS011;65385;55.772;37.658;2023-07-30T01:39:43;22.15;;;12.38;;
76540;SDS011;65385;55.772;37.658;2023-07-30T01:40:45;22.60;;;13.05;;
76540;SDS011;65385;55.772;37.658;2023-07-30T01:41:46;22.23;;;13.48;;
76540;SDS011;65385;55.772;37.658;2023-07-30T01:42:47;22.13;;;13.77;;
76540;SDS011;65385;55.772;37.658;2023-07-30T01:43:50;26.27;;;14.80;;
76540;SDS011;65385;55.772;37.658;2023-07-30T01:44:51;22.88;;;13.07;;
76540;SDS011;65385;55.772;37.658;2023-07-30T01:45:51;20.42;;;13.05;;
76540;SDS011;65385;55.772;37.658;2023-07-30T01:46:52;25.52;;;12.98;;
76540;SDS011;65385;55.772;37.658;2023-07-30T01:47:53;20.90;;;12.90;;
76540;SDS011;65385;55.772;37.658;2023-07-30T01:48:53;23.00;;;12.40;;
76540;SDS011;65385;55.772;37.658;2023-07-30T01:49:54;21.55;;;12.35;;
76540;SDS011;65385;55.772;37.658;2023-07-30T01:50:55;19.98;;;11.77;;
76540;SDS011;65385;55.772;37.658;2023-07-30T01:51:55;21.27;;;12.75;;
76540;SDS011;65385;55.772;37.658;2023-07-30T01:52:56;20.20;;;12.05;;
76540;SDS011;65385;55.772;37.658;2023-07-30T01:53:56;21.92;;;13.02;;
76540;SDS011;65385;55.772;37.658;2023-07-30T01:54:57;22.50;;;12.07;;
76540;SDS011;65385;55.772;37.658;2023-07-30T01:55:58;21.15;;;12.68;;
76540;SDS011;65385;55.772;37.658;2023-07-30T01:56:59;21.00;;;11.85;;
76540;SDS011;65385;55.772;37.658;2023-07-30T01:58:00;20.40;;;10.63;;
76540;SDS011;65385;55.772;37.658;2023-07-30T01:59:00;20.48;;;11.77;;
76540;SDS011;65385;55.772;37.658;2023-07-30T02:00:01;21.83;;;13.27;;
76540;SDS011;65385;55.772;37.658;2023-07-30T02:01:09;22.45;;;12.80;;
76540;SDS011;65385;55.772;37.658;2023-07-30T02:02:10;21.35;;;11.60;;
76540;SDS011;65385;55.772;37.658;2023-07-30T02:03:11;24.98;;;12.15;;
76540;SDS011;65385;55.772;37.658;2023-07-30T02:04:11;25.08;;;13.48;;
76540;SDS011;65385;55.772;37.658;2023-07-30T02:05:12;20.67;;;11.95;;
76540;SDS011;65385;55.772;37.658;2023-07-30T02:06:15;21.27;;;12.48;;
76540;SDS011;65385;55.772;37.658;2023-07-30T02:07:16;25.58;;;13.05;;
76540;SDS011;65385;55.772;37.658;2023-07-30T02:08:16;19.25;;;12.23;;
76540;SDS011;65385;55.772;37.658;2023-07-30T02:09:17;26.02;;;12.77;;
76540;SDS011;65385;55.772;37.658;2023-07-30T02:10:18;24.13;;;11.55;;
76540;SDS011;65385;55.772;37.658;2023-07-30T02:11:18;21.38;;;12.38;;
76540;SDS011;65385;55.772;37.658;2023-07-30T02:12:19;23.98;;;11.38;;
76540;SDS011;65385;55.772;37.658;2023-07-30T02:13:20;18.23;;;10.35;;
76540;SDS011;65385;55.772;37.658;2023-07-30T02:14:20;22.73;;;12.57;;
76540;SDS011;65385;55.772;37.658;2023-07-30T02:15:23;17.60;;;10.10;;
76540;SDS011;65385;55.772;37.658;2023-07-30T02:16:24;17.60;;;9.23;;
76540;SDS011;65385;55.772;37.658;2023-07-30T02:17:25;17.13;;;9.55;;
76540;SDS011;65385;55.772;37.658;2023-07-30T02:18:26;14.07;;;8.10;;
76540;SDS011;65385;55.772;37.658;2023-07-30T02:19:27;15.70;;;8.43;;
76540;SDS011;65385;55.772;37.658;2023-07-30T02:20:28;16.70;;;8.73;;
76540;SDS011;65385;55.772;37.658;2023-07-30T02:21:28;15.07;;;9.20;;
76540;SDS011;65385;55.772;37.658;2023-07-30T02:22:32;14.75;;;8.23;;
76540;SDS011;65385;55.772;37.658;2023-07-30T02:23:33;14.00;;;8.43;;
76540;SDS011;65385;55.772;37.658;2023-07-30T02:24:33;14.30;;;8.15;;
76540;SDS011;65385;55.772;37.658;2023-07-30T02:25:34;15.45;;;7.63;;
76540;SDS011;65385;55.772;37.658;2023-07-30T02:26:35;14.02;;;7.50;;
76540;SDS011;65385;55.772;37.658;2023-07-30T02:27:36;14.70;;;8.15;;
76540;SDS011;65385;55.772;37.658;2023-07-30T02:28:36;13.80;;;7.50;;
76540;SDS011;65385;55.772;37.658;2023-07-30T02:29:37;14.52;;;8.05;;
76540;SDS011;65385;55.772;37.658;2023-07-30T02:30:38;12.50;;;7.35;;
76540;SDS011;65385;55.772;37.658;2023-07-30T02:31:39;14.68;;;8.77;;
76540;SDS011;65385;55.772;37.658;2023-07-30T02:32:41;13.60;;;7.88;;
76540;SDS011;65385;55.772;37.658;2023-07-30T02:33:41;14.57;;;7.45;;
76540;SDS011;65385;55.772;37.658;2023-07-30T02:34:42;12.63;;;8.10;;
76540;SDS011;65385;55.772;37.658;2023-07-30T02:35:43;15.07;;;7.38;;
76540;SDS011;65385;55.772;37.658;2023-07-30T02:36:44;14.23;;;7.97;;
76540;SDS011;65385;55.772;37.658;2023-07-30T02:37:44;12.93;;;7.22;;
76540;SDS011;65385;55.772;37.658;2023-07-30T02:38:45;11.60;;;7.00;;
76540;SDS011;65385;55.772;37.658;2023-07-30T02:39:45;13.57;;;7.70;;
76540;SDS011;65385;55.772;37.658;2023-07-30T02:40:46;16.40;;;8.27;;
76540;SDS011;65385;55.772;37.658;2023-07-30T02:41:46;12.30;;;7.80;;
76540;SDS011;65385;55.772;37.658;2023-07-30T02:42:47;14.73;;;7.25;;
76540;SDS011;65385;55.772;37.658;2023-07-30T02:43:48;13.85;;;8.13;;
76540;SDS011;65385;55.772;37.658;2023-07-30T02:44:49;12.27;;;7.13;;
76540;SDS011;65385;55.772;37.658;2023-07-30T02:45:49;16.00;;;7.75;;
76540;SDS011;65385;55.772;37.658;2023-07-30T02:46:50;14.63;;;7.60;;
76540;SDS011;65385;55.772;37.658;2023-07-30T02:47:51;14.07;;;8.82;;
76540;SDS011;65385;55.772;37.658;2023-07-30T02:48:51;12.55;;;7.90;;
76540;SDS011;65385;55.772;37.658;2023-07-30T02:49:52;14.43;;;8.18;;
76540;SDS011;65385;55.772;37.658;2023-07-30T02:50:52;14.57;;;8.07;;
76540;SDS011;65385;55.772;37.658;2023-07-30T02:51:53;13.50;;;8.43;;
76540;SDS011;65385;55.772;37.658;2023-07-30T02:52:53;14.73;;;7.22;;
76540;SDS011;65385;55.772;37.658;2023-07-30T02:53:57;14.93;;;8.13;;
76540;SDS011;65385;55.772;37.658;2023-07-30T02:54:59;14.93;;;8.15;;
76540;SDS011;65385;55.772;37.658;2023-07-30T02:56:00;14.60;;;7.55;;
76540;SDS011;65385;55.772;37.658;2023-07-30T02:57:01;12.35;;;7.30;;
76540;SDS011;65385;55.772;37.658;2023-07-30T02:58:01;15.75;;;7.72;;
76540;SDS011;65385;55.772;37.658;2023-07-30T02:59:02;13.18;;;7.38;;
76540;SDS011;65385;55.772;37.658;2023-07-30T03:00:03;13.43;;;7.18;;
76540;SDS011;65385;55.772;37.658;2023-07-30T03:01:06;9.38;;;6.00;;
76540;SDS011;65385;55.772;37.658;2023-07-30T03:02:07;11.40;;;7.30;;
76540;SDS011;65385;55.772;37.658;2023-07-30T03:03:08;13.20;;;7.18;;
76540;SDS011;65385;55.772;37.658;2023-07-30T03:04:09;12.13;;;6.85;;
76540;SDS011;65385;55.772;37.658;2023-07-30T03:05:09;11.23;;;7.20;;
76540;SDS011;65385;55.772;37.658;2023-07-30T03:06:10;12.60;;;7.20;;
76540;SDS011;65385;55.772;37.658;2023-07-30T03:07:11;11.95;;;6.88;;
76540;SDS011;65385;55.772;37.658;2023-07-30T03:08:11;10.73;;;6.70;;
76540;SDS011;65385;55.772;37.658;2023-07-30T03:09:12;14.02;;;7.35;;
76540;SDS011;65385;55.772;37.658;2023-07-30T03:10:12;10.23;;;6.70;;
76540;SDS011;65385;55.772;37.658;2023-07-30T03:11:13;12.63;;;7.30;;
76540;SDS011;65385;55.772;37.658;2023-07-30T03:12:14;12.63;;;6.40;;
76540;SDS011;65385;55.772;37.658;2023-07-30T03:13:14;11.38;;;6.72;;
76540;SDS011;65385;55.772;37.658;2023-07-30T03:14:15;12.38;;;6.95;;
76540;SDS011;65385;55.772;37.658;2023-07-30T03:15:15;10.40;;;6.43;;
76540;SDS011;65385;55.772;37.658;2023-07-30T03:16:16;9.95;;;6.03;;
76540;SDS011;65385;55.772;37.658;2023-07-30T03:17:17;10.45;;;6.00;;
76540;SDS011;65385;55.772;37.658;2023-07-30T03:18:18;12.05;;;6.43;;
76540;SDS011;65385;55.772;37.658;2023-07-30T03:19:19;11.40;;;6.70;;
76540;SDS011;65385;55.772;37.658;2023-07-30T03:20:20;10.95;;;5.95;;
76540;SDS011;65385;55.772;37.658;2023-07-30T03:21:21;10.82;;;6.20;;
76540;SDS011;65385;55.772;37.658;2023-07-30T03:22:22;11.02;;;6.35;;
76540;SDS011;65385;55.772;37.658;2023-07-30T03:23:22;8.38;;;5.93;;
76540;SDS011;65385;55.772;37.658;2023-07-30T03:24:23;10.18;;;5.72;;
76540;SDS011;65385;55.772;37.658;2023-07-30T03:25:24;7.90;;;5.38;;
76540;SDS011;65385;55.772;37.658;2023-07-30T03:26:24;10.93;;;5.90;;
76540;SDS011;65385;55.772;37.658;2023-07-30T03:27:25;9.88;;;5.75;;
76540;SDS011;65385;55.772;37.658;2023-07-30T03:28:26;9.98;;;5.80;;
76540;SDS011;65385;55.772;37.658;2023-07-30T03:29:26;12.10;;;6.03;;
76540;SDS011;65385;55.772;37.658;2023-07-30T03:30:27;8.60;;;5.47;;
76540;SDS011;65385;55.772;37.658;2023-07-30T03:31:27;9.80;;;6.10;;
76540;SDS011;65385;55.772;37.658;2023-07-30T03:32:31;9.93;;;5.20;;
76540;SDS011;65385;55.772;37.658;2023-07-30T03:33:31;9.90;;;5.20;;
76540;SDS011;65385;55.772;37.658;2023-07-30T03:34:32;8.57;;;5.13;;
76540;SDS011;65385;55.772;37.658;2023-07-30T03:35:33;8.88;;;5.65;;
76540;SDS011;65385;55.772;37.658;2023-07-30T03:36:33;10.00;;;5.20;;
76540;SDS011;65385;55.772;37.658;2023-07-30T03:37:34;9.60;;;5.10;;
76540;SDS011;65385;55.772;37.658;2023-07-30T03:38:35;9.23;;;5.45;;
76540;SDS011;65385;55.772;37.658;2023-07-30T03:39:36;10.60;;;5.35;;
76540;SDS011;65385;55.772;37.658;2023-07-30T03:40:37;8.07;;;5.05;;
76540;SDS011;65385;55.772;37.658;2023-07-30T03:41:37;10.00;;;4.70;;
76540;SDS011;65385;55.772;37.658;2023-07-30T03:42:38;8.32;;;4.63;;
76540;SDS011;65385;55.772;37.658;2023-07-30T03:43:38;8.52;;;4.78;;
76540;SDS011;65385;55.772;37.658;2023-07-30T03:44:39;9.68;;;4.80;;
76540;SDS011;65385;55.772;37.658;2023-07-30T03:45:40;8.55;;;5.05;;
76540;SDS011;65385;55.772;37.658;2023-07-30T03:46:41;7.60;;;4.78;;
76540;SDS011;65385;55.772;37.658;2023-07-30T03:47:42;7.28;;;4.40;;
76540;SDS011;65385;55.772;37.658;2023-07-30T03:48:43;9.93;;;4.55;;
76540;SDS011;65385;55.772;37.658;2023-07-30T03:49:44;7.50;;;4.35;;
76540;SDS011;65385;55.772;37.658;2023-07-30T03:50:45;7.60;;;4.50;;
76540;SDS011;65385;55.772;37.658;2023-07-30T03:51:45;12.23;;;4.43;;
76540;SDS011;65385;55.772;37.658;2023-07-30T03:52:47;5.55;;;3.83;;
76540;SDS011;65385;55.772;37.658;2023-07-30T03:53:48;8.63;;;4.63;;
76540;SDS011;65385;55.772;37.658;2023-07-30T03:54:48;7.45;;;4.43;;
76540;SDS011;65385;55.772;37.658;2023-07-30T03:55:49;6.03;;;3.90;;
76540;SDS011;65385;55.772;37.658;2023-07-30T03:56:49;8.50;;;4.65;;
76540;SDS011;65385;55.772;37.658;2023-07-30T03:57:50;6.53;;;4.25;;
76540;SDS011;65385;55.772;37.658;2023-07-30T03:58:51;5.45;;;3.80;;
76540;SDS011;65385;55.772;37.658;2023-07-30T03:59:52;7.05;;;4.18;;
76540;SDS011;65385;55.772;37.658;2023-07-30T04:00:53;7.07;;;3.95;;
76540;SDS011;65385;55.772;37.658;2023-07-30T04:01:53;8.10;;;5.00;;
76540;SDS011;65385;55.772;37.658;2023-07-30T04:02:55;5.22;;;4.57;;
76540;SDS011;65385;55.772;37.658;2023-07-30T04:03:55;5.28;;;3.90;;
76540;SDS011;65385;55.772;37.658;2023-07-30T04:04:56;8.75;;;4.63;;
76540;SDS011;65385;55.772;37.658;2023-07-30T04:05:57;5.20;;;4.20;;
76540;SDS011;65385;55.772;37.658;2023-07-30T04:06:57;4.72;;;3.80;;
76540;SDS011;65385;55.772;37.658;2023-07-30T04:07:58;7.15;;;4.13;;
76540;SDS011;65385;55.772;37.658;2023-07-30T04:08:59;7.45;;;4.68;;
76540;SDS011;65385;55.772;37.658;2023-07-30T04:10:00;7.70;;;3.85;;
76540;SDS011;65385;55.772;37.658;2023-07-30T04:11:01;6.47;;;3.75;;
76540;SDS011;65385;55.772;37.658;2023-07-30T04:12:01;8.50;;;3.95;;
76540;SDS011;65385;55.772;37.658;2023-07-30T04:13:02;5.90;;;4.03;;
76540;SDS011;65385;55.772;37.658;2023-07-30T04:14:03;5.40;;;3.45;;
76540;SDS011;65385;55.772;37.658;2023-07-30T04:15:05;5.57;;;3.95;;
76540;SDS011;65385;55.772;37.658;2023-07-30T04:16:06;6.40;;;3.97;;
76540;SDS011;65385;55.772;37.658;2023-07-30T04:17:07;4.95;;;3.50;;
76540;SDS011;65385;55.772;37.658;2023-07-30T04:18:07;7.53;;;3.88;;
76540;SDS011;65385;55.772;37.658;2023-07-30T04:19:08;6.10;;;3.80;;
76540;SDS011;65385;55.772;37.658;2023-07-30T04:20:09;8.88;;;4.40;;
76540;SDS011;65385;55.772;37.658;2023-07-30T04:21:10;6.32;;;4.20;;
76540;SDS011;65385;55.772;37.658;2023-07-30T04:22:11;6.13;;;3.83;;
76540;SDS011;65385;55.772;37.658;2023-07-30T04:23:11;6.05;;;3.70;;
76540;SDS011;65385;55.772;37.658;2023-07-30T04:24:12;7.35;;;3.75;;
76540;SDS011;65385;55.772;37.658;2023-07-30T04:25:12;7.07;;;4.00;;
76540;SDS011;65385;55.772;37.658;2023-07-30T04:26:13;6.43;;;4.40;;
76540;SDS011;65385;55.772;37.658;2023-07-30T04:27:14;9.23;;;3.83;;
76540;SDS011;65385;55.772;37.658;2023-07-30T04:28:14;5.85;;;4.22;;
76540;SDS011;65385;55.772;37.658;2023-07-30T04:29:15;5.85;;;3.95;;
76540;SDS011;65385;55.772;37.658;2023-07-30T04:30:17;7.55;;;3.95;;
76540;SDS011;65385;55.772;37.658;2023-07-30T04:31:17;7.85;;;4.32;;
76540;SDS011;65385;55.772;37.658;2023-07-30T04:32:18;8.73;;;3.90;;
76540;SDS011;65385;55.772;37.658;2023-07-30T04:33:18;6.13;;;3.78;;
76540;SDS011;65385;55.772;37.658;2023-07-30T04:34:19;8.10;;;4.15;;
76540;SDS011;65385;55.772;37.658;2023-07-30T04:35:20;7.82;;;4.32;;
76540;SDS011;65385;55.772;37.658;2023-07-30T04:36:20;10.48;;;4.03;;
76540;SDS011;65385;55.772;37.658;2023-07-30T04:37:23;8.10;;;4.25;;
76540;SDS011;65385;55.772;37.658;2023-07-30T04:38:25;9.55;;;4.78;;
76540;SDS011;65385;55.772;37.658;2023-07-30T04:39:26;9.05;;;4.72;;
76540;SDS011;65385;55.772;37.658;2023-07-30T04:40:27;10.25;;;5.07;;
76540;SDS011;65385;55.772;37.658;2023-07-30T04:41:27;8.80;;;4.03;;
76540;SDS011;65385;55.772;37.658;2023-07-30T04:42:31;9.23;;;4.25;;
76540;SDS011;65385;55.772;37.658;2023-07-30T04:43:31;12.18;;;4.72;;
76540;SDS011;65385;55.772;37.658;2023-07-30T04:44:32;6.88;;;4.18;;
76540;SDS011;65385;55.772;37.658;2023-07-30T04:45:43;8.25;;;4.15;;
76540;SDS011;65385;55.772;37.658;2023-07-30T04:46:44;7.10;;;4.57;;
76540;SDS011;65385;55.772;37.658;2023-07-30T04:47:44;6.32;;;3.97;;
76540;SDS011;65385;55.772;37.658;2023-07-30T04:48:45;10.20;;;4.50;;
76540;SDS011;65385;55.772;37.658;2023-07-30T04:49:47;9.00;;;4.25;;
76540;SDS011;65385;55.772;37.658;2023-07-30T04:50:48;9.45;;;3.97;;
76540;SDS011;65385;55.772;37.658;2023-07-30T04:51:49;9.00;;;4.35;;
76540;SDS011;65385;55.772;37.658;2023-07-30T04:52:51;8.65;;;4.15;;
76540;SDS011;65385;55.772;37.658;2023-07-30T04:53:51;6.25;;;3.95;;
76540;SDS011;65385;55.772;37.658;2023-07-30T04:54:52;7.35;;;4.10;;
76540;SDS011;65385;55.772;37.658;2023-07-30T04:55:56;7.00;;;4.53;;
76540;SDS011;65385;55.772;37.658;2023-07-30T04:57:00;8.20;;;4.10;;
76540;SDS011;65385;55.772;37.658;2023-07-30T04:58:00;4.40;;;3.67;;
76540;SDS011;65385;55.772;37.658;2023-07-30T04:59:01;5.10;;;3.53;;
76540;SDS011;65385;55.772;37.658;2023-07-30T05:00:02;6.82;;;4.03;;
76540;SDS011;65385;55.772;37.658;2023-07-30T05:01:04;7.30;;;4.00;;
76540;SDS011;65385;55.772;37.658;2023-07-30T05:02:05;7.18;;;4.40;;
76540;SDS011;65385;55.772;37.658;2023-07-30T05:03:06;10.77;;;4.10;;
76540;SDS011;65385;55.772;37.658;2023-07-30T05:04:06;6.95;;;3.30;;
76540;SDS011;65385;55.772;37.658;2023-07-30T05:05:07;7.65;;;3.83;;
76540;SDS011;65385;55.772;37.658;2023-07-30T05:06:08;6.18;;;3.60;;
76540;SDS011;65385;55.772;37.658;2023-07-30T05:07:08;5.90;;;3.70;;
76540;SDS011;65385;55.772;37.658;2023-07-30T05:08:09;5.72;;;3.83;;
76540;SDS011;65385;55.772;37.658;2023-07-30T05:09:10;8.13;;;4.40;;
76540;SDS011;65385;55.772;37.658;2023-07-30T05:10:11;6.30;;;3.65;;
76540;SDS011;65385;55.772;37.658;2023-07-30T05:11:12;7.10;;;4.05;;
76540;SDS011;65385;55.772;37.658;2023-07-30T05:12:13;5.32;;;3.72;;
76540;SDS011;65385;55.772;37.658;2023-07-30T05:13:13;7.35;;;3.90;;
76540;SDS011;65385;55.772;37.658;2023-07-30T05:14:14;7.82;;;4.38;;
76540;SDS011;65385;55.772;37.658;2023-07-30T05:15:14;8.13;;;4.30;;
76540;SDS011;65385;55.772;37.658;2023-07-30T05:16:15;5.93;;;3.63;;
76540;SDS011;65385;55.772;37.658;2023-07-30T05:17:16;7.40;;;3.88;;
76540;SDS011;65385;55.772;37.658;2023-07-30T05:18:16;7.40;;;3.88;;
76540;SDS011;65385;55.772;37.658;2023-07-30T05:19:17;7.03;;;3.45;;
76540;SDS011;65385;55.772;37.658;2023-07-30T05:20:17;6.03;;;3.63;;
76540;SDS011;65385;55.772;37.658;2023-07-30T05:21:18;9.07;;;4.00;;
76540;SDS011;65385;55.772;37.658;2023-07-30T05:22:19;7.07;;;3.67;;
76540;SDS011;65385;55.772;37.658;2023-07-30T05:23:19;5.55;;;3.47;;
76540;SDS011;65385;55.772;37.658;2023-07-30T05:24:20;4.93;;;3.30;;
76540;SDS011;65385;55.772;37.658;2023-07-30T05:25:21;6.20;;;3.63;;
76540;SDS011;65385;55.772;37.658;2023-07-30T05:26:23;5.72;;;4.70;;
76540;SDS011;65385;55.772;37.658;2023-07-30T05:27:23;8.38;;;3.50;;
76540;SDS011;65385;55.772;37.658;2023-07-30T05:28:24;6.35;;;4.18;;
76540;SDS011;65385;55.772;37.658;2023-07-30T05:29:24;6.15;;;3.63;;
76540;SDS011;65385;55.772;37.658;2023-07-30T05:30:25;7.05;;;3.67;;
76540;SDS011;65385;55.772;37.658;2023-07-30T05:31:26;6.60;;;3.88;;
76540;SDS011;65385;55.772;37.658;2023-07-30T05:32:26;7.00;;;3.72;;
76540;SDS011;65385;55.772;37.658;2023-07-30T05:33:27;6.28;;;3.58;;
76540;SDS011;65385;55.772;37.658;2023-07-30T05:34:28;7.32;;;4.07;;
76540;SDS011;65385;55.772;37.658;2023-07-30T05:35:28;6.85;;;3.92;;
76540;SDS011;65385;55.772;37.658;2023-07-30T05:36:29;7.78;;;5.18;;
76540;SDS011;65385;55.772;37.658;2023-07-30T05:37:29;7.60;;;5.10;;
76540;SDS011;65385;55.772;37.658;2023-07-30T05:38:30;7.55;;;4.40;;
76540;SDS011;65385;55.772;37.658;2023-07-30T05:39:31;8.63;;;4.50;;
76540;SDS011;65385;55.772;37.658;2023-07-30T05:40:31;7.18;;;3.78;;
76540;SDS011;65385;55.772;37.658;2023-07-30T05:41:32;6.20;;;4.10;;
76540;SDS011;65385;55.772;37.658;2023-07-30T05:42:32;5.35;;;3.55;;
76540;SDS011;65385;55.772;37.658;2023-07-30T05:43:33;9.50;;;4.47;;
76540;SDS011;65385;55.772;37.658;2023-07-30T05:44:34;9.68;;;4.10;;
76540;SDS011;65385;55.772;37.658;2023-07-30T05:45:34;6.15;;;3.90;;
76540;SDS011;65385;55.772;37.658;2023-07-30T05:46:35;8.38;;;3.72;;
76540;SDS011;65385;55.772;37.658;2023-07-30T05:47:36;6.55;;;4.15;;
76540;SDS011;65385;55.772;37.658;2023-07-30T05:48:36;5.78;;;3.80;;
76540;SDS011;65385;55.772;37.658;2023-07-30T05:49:37;6.95;;;3.33;;
76540;SDS011;65385;55.772;37.658;2023-07-30T05:50:37;6.00;;;3.60;;
76540;SDS011;65385;55.772;37.658;2023-07-30T05:51:38;7.45;;;3.30;;
76540;SDS011;65385;55.772;37.658;2023-07-30T05:52:39;4.80;;;3.40;;
76540;SDS011;65385;55.772;37.658;2023-07-30T05:53:39;5.63;;;3.53;;
76540;SDS011;65385;55.772;37.658;2023-07-30T05:54:40;4.47;;;3.10;;
76540;SDS011;65385;55.772;37.658;2023-07-30T05:55:40;7.15;;;3.25;;
76540;SDS011;65385;55.772;37.658;2023-07-30T05:56:41;4.82;;;2.92;;